International Virtual Aviation Organisation

Russian Federation and Kazakhstan MCD

 

Карточка аэропорта UHMA

Внимание!
Информация на этой странице в стадии наполнения.
Если вы не увидели какой-то информации, или заметили неточность - пожалуйста сообщите нам!
Спасибо!
Команда RU-STAFF
Название аэропортаУгольный
Название аэропорта (англ.)Ugolny
Превышение194 ft. (59.1 m.)
Координаты64°44.1', 177°44.28'
Высота перехода1600m
Эшелон переходаQFE>=755mm:FL070; QFE<755=>728:FL080; QFE<728:FL090
Коды ответчика6501-6537
Зона ОрВДМагадан РПИ (UHMM)
Данные METARUHMA 131000Z 05007MPS 9999 -SN BKN040 OVC050 M00/M04 Q0996 R01/////// NOSIG RMK TDZ R01/05007G10MPS END R01/05011G14MPS QFE743/0991
Проноз погоды (TAF)UHMA 130842Z 1309/1409 01008G13MPS 5000 -SN SCT010 BKN025 TEMPO 1309/1409 05013G18MPS 1000 SHSN BLSN BKN005 BKN015CB
NOTAMshow/hide NOTAM
AWOS   TABLE

Информация о ВПП


Диспетчерские позиции

Позывной Наименование органа УВД Частота
UHMA_APPАнадырь-Подход124.0
UHMA_TWRАнадырь-Старт124.0



Спутниковое изображение